Time;durP1;ratioP1;P1;durP2;ratioP2;P2;SDS_P1;SDS_P2;PMS_P1;PMS_P2;Temp;Humidity;BMP_temperature;BMP_pressure;BME280_temperature;BME280_humidity;BME280_pressure;Samples;Min_cycle;Max_cycle;Signal;HPM_P1;HPM_P2
2023/09/05 00:04:44;;;;;;;9.10;4.68;;;;;;;15.48;60.47;100570.81;10392823;28;20165;-60
2023/09/05 00:09:47;;;;;;;7.85;4.03;;;;;;;15.38;60.60;100560.09;10393175;28;20057;-59
2023/09/05 00:14:48;;;;;;;5.32;2.90;;;;;;;15.38;60.81;100557.47;10421376;28;20061;-59
2023/09/05 00:19:51;;;;;;;6.18;2.25;;;;;;;15.30;61.04;100563.28;10393200;28;20041;-60
2023/09/05 00:24:53;;;;;;;5.47;2.58;;;;;;;15.35;60.97;100561.13;10398614;28;20049;-60
2023/09/05 00:29:57;;;;;;;5.32;2.22;;;;;;;15.21;61.16;100563.88;10398346;28;20080;-60
2023/09/05 00:34:59;;;;;;;5.22;2.58;;;;;;;15.08;61.17;100564.84;10391867;28;20046;-59
2023/09/05 00:40:00;;;;;;;4.38;2.00;;;;;;;15.03;61.68;100557.25;10409190;28;20052;-60
2023/09/05 00:45:05;;;;;;;4.35;2.40;;;;;;;15.06;61.64;100556.22;10396244;28;20052;-60
2023/09/05 00:50:08;;;;;;;4.18;1.90;;;;;;;14.93;62.11;100555.34;10390802;28;20045;-60
2023/09/05 00:55:11;;;;;;;4.80;1.90;;;;;;;14.61;62.53;100548.75;10396494;28;20045;-61
2023/09/05 01:00:13;;;;;;;4.07;1.95;;;;;;;14.57;62.70;100543.69;10396308;28;20041;-61
2023/09/05 01:05:15;;;;;;;3.20;1.70;;;;;;;14.55;62.99;100545.59;10389782;28;20043;-61
2023/09/05 01:10:23;;;;;;;3.28;1.83;;;;;;;14.53;63.56;100544.03;10388003;28;20514;-61
2023/09/05 01:15:25;;;;;;;3.30;1.73;;;;;;;14.54;63.12;100548.31;10389175;28;20136;-61
2023/09/05 01:20:40;;;;;;;3.92;1.50;;;;;;;14.63;63.80;100552.13;10391854;28;20516;-61
2023/09/05 01:25:42;;;;;;;2.78;1.65;;;;;;;14.66;62.89;100550.13;10388740;28;20053;-61
2023/09/05 01:30:46;;;;;;;3.45;1.90;;;;;;;14.47;63.40;100558.38;10393436;28;20056;-61
2023/09/05 01:35:48;;;;;;;3.53;1.60;;;;;;;14.45;63.48;100546.28;10391149;28;20052;-61
2023/09/05 01:40:50;;;;;;;4.68;1.67;;;;;;;14.26;63.91;100543.16;10421275;28;20482;-62
2023/09/05 01:45:53;;;;;;;2.65;1.70;;;;;;;14.38;63.69;100534.47;10388242;28;20041;-60
2023/09/05 01:50:55;;;;;;;2.40;1.40;;;;;;;14.34;63.56;100536.47;10389252;28;20053;-60
2023/09/05 01:55:57;;;;;;;4.93;2.15;;;;;;;14.21;64.14;100534.69;10389654;28;20088;-60
2023/09/05 02:01:03;;;;;;;4.00;1.83;;;;;;;14.19;64.40;100531.31;10389908;28;20052;-60
2023/09/05 02:06:05;;;;;;;3.92;1.70;;;;;;;14.09;64.24;100527.63;10396730;28;20045;-60
2023/09/05 02:11:11;;;;;;;4.13;1.60;;;;;;;14.06;63.98;100520.78;10386422;28;20080;-60
2023/09/05 02:16:18;;;;;;;5.35;1.70;;;;;;;13.93;64.50;100525.13;10410352;28;20045;-60
2023/09/05 02:21:21;;;;;;;2.97;1.70;;;;;;;13.96;64.36;100509.19;10399343;28;20421;-60
2023/09/05 02:26:23;;;;;;;3.13;1.70;;;;;;;13.95;64.31;100510.09;10399803;28;20037;-61
2023/09/05 02:31:25;;;;;;;2.97;1.60;;;;;;;13.96;64.68;100511.81;10396914;28;20061;-60
2023/09/05 02:36:30;;;;;;;2.88;1.45;;;;;;;14.08;64.44;100515.41;10429099;28;20128;-60
2023/09/05 02:41:33;;;;;;;3.15;1.50;;;;;;;14.01;64.04;100504.44;10394671;28;20490;-60
2023/09/05 02:46:35;;;;;;;3.45;1.60;;;;;;;14.03;64.16;100504.34;10394027;28;20106;-60
2023/09/05 02:51:37;;;;;;;5.30;1.90;;;;;;;14.06;63.92;100505.00;10413307;28;20045;-60
2023/09/05 02:56:38;;;;;;;2.78;1.70;;;;;;;13.97;64.17;100500.34;10425720;28;20072;-60
2023/09/05 03:01:40;;;;;;;7.72;2.20;;;;;;;13.84;64.09;100502.03;10430394;28;20120;-60
2023/09/05 03:06:43;;;;;;;6.30;1.60;;;;;;;13.63;64.28;100492.91;10389041;28;20045;-60
2023/09/05 03:11:46;;;;;;;2.75;1.52;;;;;;;13.49;64.67;100487.69;10387099;28;20406;-60
2023/09/05 03:16:48;;;;;;;2.45;1.33;;;;;;;13.48;64.85;100493.88;10420953;28;20057;-60
2023/09/05 03:21:53;;;;;;;3.88;1.50;;;;;;;13.59;64.85;100494.06;10387980;28;20133;-60
2023/09/05 03:26:55;;;;;;;4.10;1.52;;;;;;;13.64;64.81;100491.97;10389506;28;20406;-60
2023/09/05 03:31:57;;;;;;;3.05;1.65;;;;;;;13.71;64.40;100488.88;10386634;28;20300;-60
2023/09/05 03:37:01;;;;;;;2.42;1.42;;;;;;;13.72;64.33;100479.16;10395893;28;20053;-60
2023/09/05 03:42:03;;;;;;;3.05;1.70;;;;;;;13.67;64.40;100489.16;10393781;28;20079;-61
2023/09/05 03:47:05;;;;;;;4.20;1.70;;;;;;;13.58;64.36;100481.84;10425692;28;20053;-61
2023/09/05 03:52:07;;;;;;;3.13;1.70;;;;;;;13.61;64.32;100472.00;10394761;28;20033;-61
2023/09/05 03:57:09;;;;;;;7.07;2.25;;;;;;;13.63;64.66;100475.38;10394682;28;20498;-60
2023/09/05 04:02:13;;;;;;;3.80;1.90;;;;;;;13.62;64.59;100472.81;10393165;28;20511;-60
2023/09/05 04:07:21;;;;;;;2.83;1.58;;;;;;;13.60;64.89;100483.44;10394733;28;20549;-60
2023/09/05 04:12:23;;;;;;;4.97;1.92;;;;;;;13.40;64.91;100480.34;10391807;28;20144;-60
2023/09/05 04:17:25;;;;;;;2.35;1.70;;;;;;;13.36;65.09;100481.47;10394731;28;20553;-60
2023/09/05 04:22:31;;;;;;;4.43;1.67;;;;;;;13.32;65.41;100474.72;10394331;28;20516;-61
2023/09/05 04:27:33;;;;;;;4.88;1.50;;;;;;;13.44;65.27;100479.25;10399487;28;20052;-60
2023/09/05 04:32:36;;;;;;;3.80;2.10;;;;;;;13.51;64.89;100483.19;10413019;28;20037;-60
2023/09/05 04:37:38;;;;;;;2.92;1.60;;;;;;;13.56;64.85;100491.59;10391045;28;20064;-60
2023/09/05 04:42:40;;;;;;;3.45;1.80;;;;;;;13.59;64.75;100494.91;10390227;28;20041;-61
2023/09/05 04:47:42;;;;;;;3.58;1.52;;;;;;;13.67;64.76;100503.16;10374587;28;20079;-61
2023/09/05 04:52:45;;;;;;;3.38;1.95;;;;;;;13.68;64.71;100494.31;10398243;28;20048;-61
2023/09/05 04:57:48;;;;;;;3.90;1.90;;;;;;;13.55;64.59;100503.06;10397058;28;20053;-61
2023/09/05 05:02:50;;;;;;;3.20;1.70;;;;;;;13.57;64.63;100511.69;10391685;28;20140;-60
2023/09/05 05:07:52;;;;;;;5.53;1.65;;;;;;;13.54;64.32;100506.63;10394647;28;20049;-60
2023/09/05 05:12:54;;;;;;;2.22;1.35;;;;;;;13.55;64.63;100508.31;10390420;28;20080;-60
2023/09/05 05:17:56;;;;;;;2.47;1.55;;;;;;;13.56;64.69;100510.00;10397212;28;20049;-60
2023/09/05 05:22:58;;;;;;;3.00;1.50;;;;;;;13.64;64.62;100513.00;10393566;28;20046;-61
2023/09/05 05:28:00;;;;;;;2.35;1.45;;;;;;;13.87;64.46;100507.13;10396221;28;20043;-60
2023/09/05 05:33:03;;;;;;;3.47;1.35;;;;;;;14.05;64.26;100502.44;10392303;28;20049;-60
2023/09/05 05:38:04;;;;;;;3.60;1.67;;;;;;;14.16;64.13;100497.34;10390532;28;20124;-61
2023/09/05 05:43:07;;;;;;;3.47;1.75;;;;;;;14.32;63.74;100500.66;10404845;28;20114;-61
2023/09/05 05:48:10;;;;;;;4.00;1.65;;;;;;;14.39;64.00;100497.50;10390193;28;20037;-60
2023/09/05 05:53:13;;;;;;;3.00;1.60;;;;;;;14.48;63.70;100502.16;10389831;28;20096;-61
2023/09/05 05:58:15;;;;;;;3.35;1.70;;;;;;;14.57;63.80;100506.84;10389340;28;20235;-60
2023/09/05 06:03:18;;;;;;;4.47;1.50;;;;;;;14.66;63.65;100501.91;10403974;28;20042;-61
2023/09/05 06:08:20;;;;;;;4.72;1.92;;;;;;;14.72;63.75;100509.38;10392258;28;20057;-61
2023/09/05 06:13:22;;;;;;;4.15;2.05;;;;;;;14.75;63.60;100514.44;10388694;28;20525;-61
2023/09/05 06:18:24;;;;;;;3.45;1.70;;;;;;;14.87;63.67;100508.34;10395655;28;20095;-61
2023/09/05 06:23:27;;;;;;;4.53;2.08;;;;;;;15.01;63.37;100510.88;10390424;28;20057;-61
2023/09/05 06:28:29;;;;;;;4.50;1.70;;;;;;;15.11;63.44;100507.50;10390886;28;20068;-62
2023/09/05 06:33:31;;;;;;;2.95;1.58;;;;;;;15.18;63.26;100502.66;10390745;28;20216;-62
2023/09/05 06:38:33;;;;;;;2.67;1.58;;;;;;;15.29;63.05;100503.59;10388020;28;20056;-60
2023/09/05 06:43:36;;;;;;;4.13;1.70;;;;;;;15.40;62.92;100492.31;10401047;28;20386;-61
2023/09/05 06:48:39;;;;;;;3.55;1.58;;;;;;;15.61;62.75;100495.25;10389220;28;20055;-60
2023/09/05 06:53:41;;;;;;;5.68;1.50;;;;;;;15.70;62.59;100499.84;10387085;28;20042;-60
2023/09/05 06:58:43;;;;;;;3.03;1.60;;;;;;;15.83;62.31;100503.28;10389099;28;20072;-61
2023/09/05 07:03:45;;;;;;;3.42;1.58;;;;;;;15.93;62.07;100501.66;10388459;28;20064;-60
2023/09/05 07:08:47;;;;;;;3.15;1.83;;;;;;;16.06;61.98;100505.91;10421146;28;20045;-61
2023/09/05 07:13:51;;;;;;;4.85;1.63;;;;;;;16.28;61.83;100512.28;10392936;28;20352;-61
2023/09/05 07:18:56;;;;;;;6.07;1.52;;;;;;;16.52;61.38;100508.69;10393567;28;20041;-61
2023/09/05 07:23:58;;;;;;;8.43;1.80;;;;;;;16.62;61.49;100512.31;10391885;28;20037;-60
2023/09/05 07:29:01;;;;;;;3.45;1.30;;;;;;;16.86;61.07;100510.44;10392417;28;20505;-62
2023/09/05 07:34:04;;;;;;;3.10;1.88;;;;;;;17.13;60.88;100506.63;10395663;28;20159;-62
2023/09/05 07:39:10;;;;;;;3.58;1.70;;;;;;;17.66;60.59;100501.47;10393934;28;20046;-62
2023/09/05 07:44:12;;;;;;;2.88;1.48;;;;;;;18.75;59.03;100494.22;10390277;28;20045;-61
2023/09/05 07:49:15;;;;;;;3.20;1.73;;;;;;;19.62;56.99;100501.63;10392598;28;20489;-62
2023/09/05 07:54:20;;;;;;;3.90;1.40;;;;;;;20.56;55.17;100501.91;10391889;28;20469;-62
2023/09/05 07:59:23;;;;;;;4.25;1.30;;;;;;;21.25;53.58;100494.50;10393929;28;20132;-61
2023/09/05 08:04:25;;;;;;;3.60;1.60;;;;;;;21.92;52.22;100485.16;10390902;28;20087;-61
2023/09/05 08:09:27;;;;;;;2.63;1.60;;;;;;;22.48;50.39;100486.72;10428600;28;20152;-61
2023/09/05 08:14:29;;;;;;;2.70;1.33;;;;;;;23.03;49.81;100485.47;10392532;28;20053;-61
2023/09/05 08:19:31;;;;;;;2.58;1.30;;;;;;;23.16;48.68;100483.22;10391395;28;20417;-63
2023/09/05 08:24:33;;;;;;;2.40;1.40;;;;;;;23.66;46.75;100472.59;10389383;28;20197;-62
2023/09/05 08:29:35;;;;;;;4.72;2.13;;;;;;;24.17;46.83;100472.41;10426740;28;20053;-63
2023/09/05 08:34:39;;;;;;;4.18;1.40;;;;;;;24.56;46.32;100480.59;10392976;28;20172;-62
2023/09/05 08:39:41;;;;;;;2.42;1.30;;;;;;;24.96;45.56;100477.06;10393592;28;20080;-63
2023/09/05 08:44:43;;;;;;;3.97;1.35;;;;;;;25.17;44.29;100465.78;10392673;28;20049;-63
2023/09/05 08:49:46;;;;;;;2.55;1.40;;;;;;;25.39;42.78;100460.56;10391573;28;20059;-62
2023/09/05 08:54:48;;;;;;;1.90;1.10;;;;;;;25.49;41.50;100452.34;10388704;28;20072;-62
2023/09/05 08:59:50;;;;;;;4.05;1.52;;;;;;;25.55;41.00;100457.00;10389634;28;20034;-62
2023/09/05 09:04:58;;;;;;;5.88;1.30;;;;;;;25.66;40.44;100453.91;10387834;28;20088;-62
2023/09/05 09:10:16;;;;;;;4.03;1.65;;;;;;;25.97;37.20;100451.22;10389174;28;20053;-62
2023/09/05 09:15:18;;;;;;;1.83;1.13;;;;;;;26.05;38.27;100440.44;10387805;28;20064;-62
2023/09/05 09:20:23;;;;;;;1.92;1.20;;;;;;;25.95;38.00;100443.34;10387093;28;20057;-62
2023/09/05 09:25:26;;;;;;;1.77;1.13;;;;;;;26.12;38.61;100442.22;10389036;28;20065;-62
2023/09/05 09:30:30;;;;;;;1.45;0.95;;;;;;;26.07;37.81;100435.75;10396354;28;20061;-62
2023/09/05 09:35:34;;;;;;;2.17;1.10;;;;;;;26.33;37.72;100426.31;10399263;28;20087;-62
2023/09/05 09:40:38;;;;;;;1.60;1.10;;;;;;;26.43;37.20;100440.31;10386987;28;20055;-62
2023/09/05 09:45:41;;;;;;;6.65;1.40;;;;;;;26.53;36.45;100446.25;10390059;28;20045;-62
2023/09/05 09:50:43;;;;;;;1.55;1.00;;;;;;;26.69;36.14;100432.69;10386563;28;20297;-62
2023/09/05 09:55:51;;;;;;;1.75;0.90;;;;;;;26.67;34.53;100431.22;10387005;28;20041;-63
2023/09/05 10:00:55;;;;;;;1.45;0.90;;;;;;;26.67;36.14;100417.78;10416768;28;20052;-63
2023/09/05 10:06:04;;;;;;;2.28;1.10;;;;;;;26.68;35.39;100420.31;10386629;28;20056;-63
2023/09/05 10:11:09;;;;;;;1.45;1.00;;;;;;;26.87;35.85;100418.09;10384340;28;20107;-63
2023/09/05 10:16:12;;;;;;;1.55;1.30;;;;;;;26.72;33.34;100410.03;10387106;28;20136;-63
2023/09/05 10:21:20;;;;;;;2.00;1.23;;;;;;;26.68;34.21;100404.22;10388929;28;20436;-63
2023/09/05 10:26:23;;;;;;;2.25;1.20;;;;;;;26.68;34.84;100412.25;10386634;28;20045;-64
2023/09/05 10:31:25;;;;;;;2.55;1.13;;;;;;;26.72;34.72;100406.50;10396334;28;20040;-63
2023/09/05 10:36:41;;;;;;;2.10;1.15;;;;;;;26.64;34.65;100407.44;10405563;28;20049;-63
2023/09/05 10:41:43;;;;;;;1.92;1.00;;;;;;;26.66;34.86;100406.25;10381739;28;20274;-62
2023/09/05 10:46:53;;;;;;;1.63;1.10;;;;;;;26.57;34.58;100387.72;10384714;28;20142;-63
2023/09/05 10:52:15;;;;;;;1.60;1.10;;;;;;;26.06;35.03;100386.66;10385214;28;20053;-62
2023/09/05 10:57:37;;;;;;;2.65;1.02;;;;;;;26.05;34.82;100384.16;10385335;28;20421;-63
2023/09/05 11:02:40;;;;;;;2.03;1.20;;;;;;;26.02;35.33;100379.19;10394299;28;20056;-64
2023/09/05 11:07:43;;;;;;;2.10;1.10;;;;;;;26.01;35.55;100374.81;10386188;28;20121;-61
2023/09/05 11:12:45;;;;;;;2.22;1.13;;;;;;;26.08;36.03;100383.81;10386114;28;20049;-63
2023/09/05 11:17:59;;;;;;;3.17;1.30;;;;;;;26.20;33.83;100382.38;10385736;28;20045;-63
2023/09/05 11:23:16;;;;;;;3.53;1.30;;;;;;;26.23;32.67;100382.81;10380890;28;20076;-62
2023/09/05 11:28:24;;;;;;;2.70;1.13;;;;;;;26.43;33.91;100369.72;10384332;28;20037;-62
2023/09/05 11:33:28;;;;;;;1.75;1.00;;;;;;;26.59;34.49;100373.09;10385374;28;20060;-62
2023/09/05 11:38:46;;;;;;;2.80;1.00;;;;;;;26.63;31.69;100362.84;10383950;28;20049;-63
2023/09/05 11:43:53;;;;;;;5.90;1.52;;;;;;;26.75;33.46;100363.22;10393224;28;20090;-63
2023/09/05 11:48:58;;;;;;;2.58;1.15;;;;;;;26.76;33.07;100352.28;10385733;28;20044;-63
2023/09/05 11:54:05;;;;;;;6.30;1.00;;;;;;;26.74;32.39;100353.50;10386742;28;20808;-62
2023/09/05 11:59:07;;;;;;;1.52;0.93;;;;;;;26.85;32.29;100351.19;10391013;28;20049;-62
2023/09/05 12:04:10;;;;;;;1.92;1.10;;;;;;;26.87;32.17;100341.09;10393163;28;20047;-62
2023/09/05 12:09:12;;;;;;;2.00;0.90;;;;;;;26.73;31.41;100335.75;10395411;28;20045;-62
2023/09/05 12:14:16;;;;;;;2.22;0.80;;;;;;;26.82;28.80;100334.59;10392127;28;20049;-62
2023/09/05 12:19:19;;;;;;;1.52;0.90;;;;;;;26.98;30.50;100319.13;10394003;28;20193;-62
2023/09/05 12:24:24;;;;;;;2.08;1.00;;;;;;;27.07;30.65;100327.91;10393187;28;20057;-62
2023/09/05 12:29:40;;;;;;;2.90;1.20;;;;;;;27.11;30.02;100319.31;10393801;28;20150;-63
2023/09/05 12:34:43;;;;;;;1.95;1.15;;;;;;;27.17;30.65;100315.91;10393441;28;20049;-63
2023/09/05 12:39:46;;;;;;;2.92;1.10;;;;;;;27.17;30.97;100315.91;10391784;28;20230;-63
2023/09/05 12:44:48;;;;;;;2.28;1.20;;;;;;;27.21;30.96;100309.13;10388041;28;20468;-60
2023/09/05 12:49:53;;;;;;;3.58;1.10;;;;;;;27.42;31.15;100302.94;10388611;28;20509;-61
2023/09/05 12:55:12;;;;;;;3.30;1.10;;;;;;;27.46;31.64;100306.91;10389628;28;20085;-62
2023/09/05 13:00:16;;;;;;;1.23;0.98;;;;;;;27.50;30.12;100284.81;10393605;28;20065;-61
2023/09/05 13:05:18;;;;;;;3.13;1.00;;;;;;;27.59;30.81;100287.38;10388568;28;20596;-62
2023/09/05 13:10:20;;;;;;;2.17;1.10;;;;;;;27.61;30.73;100288.00;10388063;28;20092;-63
2023/09/05 13:15:22;;;;;;;2.33;1.10;;;;;;;27.56;31.72;100285.09;10388893;28;20049;-63
2023/09/05 13:20:24;;;;;;;1.60;1.10;;;;;;;27.44;32.03;100280.22;10386537;28;20042;-63
2023/09/05 13:25:28;;;;;;;1.88;1.00;;;;;;;27.43;32.99;100273.19;10387788;28;20417;-64
2023/09/05 13:30:31;;;;;;;2.05;1.40;;;;;;;27.51;33.43;100266.84;10388189;28;20052;-63
2023/09/05 13:35:33;;;;;;;1.58;1.10;;;;;;;27.65;34.19;100259.75;10388943;28;20489;-62
2023/09/05 13:40:35;;;;;;;2.63;1.20;;;;;;;27.76;33.75;100251.19;10417287;28;20049;-62
2023/09/05 13:45:38;;;;;;;2.88;1.23;;;;;;;27.68;33.53;100248.59;10389401;28;20049;-62
2023/09/05 13:50:41;;;;;;;3.92;1.30;;;;;;;27.67;33.73;100249.66;10386783;28;20045;-63
2023/09/05 13:55:44;;;;;;;3.58;1.20;;;;;;;27.60;33.83;100248.75;10394414;28;20049;-62
2023/09/05 14:00:48;;;;;;;2.05;1.35;;;;;;;27.54;33.80;100238.78;10386009;28;20044;-62
2023/09/05 14:05:51;;;;;;;4.75;1.70;;;;;;;27.68;34.41;100230.63;10385939;28;20034;-64
2023/09/05 14:10:54;;;;;;;2.92;1.00;;;;;;;27.78;33.92;100230.31;10377881;28;20615;-63
2023/09/05 14:15:56;;;;;;;3.58;1.10;;;;;;;27.78;33.85;100219.56;10387270;28;20060;-63
2023/09/05 14:20:59;;;;;;;1.70;1.13;;;;;;;27.95;34.06;100207.50;10383616;28;20578;-63
2023/09/05 14:26:00;;;;;;;2.05;1.17;;;;;;;27.81;33.37;100208.44;10387462;28;20049;-63
2023/09/05 14:31:02;;;;;;;1.75;0.95;;;;;;;27.71;34.05;100207.94;10385748;28;20520;-63
2023/09/05 14:36:04;;;;;;;3.05;1.00;;;;;;;27.71;34.57;100203.34;10385588;28;20041;-63
2023/09/05 14:41:06;;;;;;;3.30;1.20;;;;;;;27.76;33.61;100211.72;10387725;28;20068;-63
2023/09/05 14:46:08;;;;;;;1.58;0.93;;;;;;;27.57;33.64;100201.59;10381412;28;20037;-63
2023/09/05 14:51:10;;;;;;;2.03;1.15;;;;;;;27.62;34.44;100192.97;10389852;28;20075;-63
2023/09/05 14:56:12;;;;;;;3.67;1.00;;;;;;;27.73;34.11;100201.34;10384392;28;20589;-63
2023/09/05 15:01:15;;;;;;;3.15;1.30;;;;;;;27.72;34.34;100190.75;10384974;28;20029;-63
2023/09/05 15:06:17;;;;;;;1.60;1.05;;;;;;;27.66;33.36;100194.22;10383541;28;20128;-63
2023/09/05 15:11:19;;;;;;;1.45;1.02;;;;;;;27.70;33.97;100200.88;10390446;28;20132;-63
2023/09/05 15:16:24;;;;;;;2.28;1.10;;;;;;;27.72;33.87;100196.13;10389279;28;20060;-62
2023/09/05 15:21:26;;;;;;;1.80;1.20;;;;;;;27.80;34.08;100190.63;10383225;28;20473;-62
2023/09/05 15:26:28;;;;;;;2.38;1.20;;;;;;;27.67;33.67;100185.16;10382579;28;20469;-62
2023/09/05 15:31:30;;;;;;;2.67;1.38;;;;;;;27.63;34.23;100184.69;10387270;28;20064;-62
2023/09/05 15:36:37;;;;;;;3.00;1.20;;;;;;;27.72;34.78;100178.19;10393175;28;20495;-64
2023/09/05 15:41:39;;;;;;;1.55;1.05;;;;;;;27.75;34.85;100179.66;10393278;28;20929;-63
2023/09/05 15:46:42;;;;;;;2.28;1.27;;;;;;;27.89;34.08;100179.53;10424553;28;20164;-63
2023/09/05 15:51:44;;;;;;;1.92;1.23;;;;;;;28.02;34.58;100186.84;10390484;28;20827;-64
2023/09/05 15:56:47;;;;;;;3.33;1.13;;;;;;;27.86;33.95;100177.25;10399403;28;20041;-63
2023/09/05 16:01:49;;;;;;;2.88;0.90;;;;;;;27.78;33.97;100176.56;10387506;28;20049;-62
2023/09/05 16:06:52;;;;;;;1.83;1.10;;;;;;;27.60;33.93;100174.34;10393161;28;20041;-64
2023/09/05 16:11:56;;;;;;;2.15;1.00;;;;;;;27.62;34.19;100184.91;10392502;28;20052;-64
2023/09/05 16:16:59;;;;;;;1.75;1.02;;;;;;;27.57;34.74;100185.47;10394200;28;20042;-63
2023/09/05 16:22:02;;;;;;;1.80;1.00;;;;;;;27.37;34.30;100184.47;10424796;28;20127;-62
2023/09/05 16:27:04;;;;;;;2.17;1.05;;;;;;;27.36;34.89;100186.34;10390759;28;20048;-63
2023/09/05 16:32:06;;;;;;;1.48;1.00;;;;;;;27.36;35.30;100193.59;10390458;28;20048;-63
2023/09/05 16:37:14;;;;;;;3.50;1.10;;;;;;;27.38;35.58;100191.53;10423404;28;20057;-63
2023/09/05 16:42:17;;;;;;;1.20;0.80;;;;;;;27.73;35.03;100184.41;10398864;28;20065;-63
2023/09/05 16:47:20;;;;;;;2.03;1.17;;;;;;;28.13;34.98;100184.44;10390890;28;20208;-63
2023/09/05 16:52:22;;;;;;;1.67;1.05;;;;;;;28.34;34.91;100186.22;10392280;28;20148;-64
2023/09/05 16:57:25;;;;;;;7.55;2.00;;;;;;;28.03;35.77;100177.78;10387311;28;20053;-65
2023/09/05 17:02:27;;;;;;;1.40;1.00;;;;;;;27.63;36.57;100189.25;10389057;28;20505;-63
2023/09/05 17:07:29;;;;;;;1.45;1.05;;;;;;;27.17;37.19;100197.75;10391749;28;20601;-62
2023/09/05 17:12:31;;;;;;;1.67;0.95;;;;;;;26.75;37.59;100186.91;10389858;28;20104;-64
2023/09/05 17:17:34;;;;;;;2.13;1.08;;;;;;;26.33;37.70;100198.34;10393279;28;20064;-63
2023/09/05 17:22:36;;;;;;;1.67;1.00;;;;;;;26.11;37.89;100201.13;10392201;28;20136;-61
2023/09/05 17:27:41;;;;;;;1.60;0.95;;;;;;;25.86;38.19;100206.75;10395376;28;20045;-61
2023/09/05 17:32:46;;;;;;;3.33;1.15;;;;;;;25.55;38.65;100202.53;10387874;28;20149;-61
2023/09/05 17:37:48;;;;;;;1.85;1.10;;;;;;;25.33;38.80;100198.81;10392710;28;20500;-61
2023/09/05 17:42:50;;;;;;;3.42;1.30;;;;;;;25.17;38.78;100212.34;10386058;28;20589;-61
2023/09/05 17:47:53;;;;;;;1.98;0.93;;;;;;;24.94;38.79;100215.00;10391759;28;20458;-62
2023/09/05 17:52:55;;;;;;;3.15;1.10;;;;;;;24.72;39.54;100218.47;10396498;28;20308;-62
2023/09/05 17:57:58;;;;;;;2.72;1.33;;;;;;;24.47;40.39;100226.78;10387071;28;20043;-63
2023/09/05 18:03:00;;;;;;;2.03;1.10;;;;;;;24.18;40.81;100230.03;10383919;28;20056;-63
2023/09/05 18:08:02;;;;;;;1.85;1.10;;;;;;;23.84;41.28;100238.25;10389060;28;20049;-63
2023/09/05 18:13:04;;;;;;;2.40;1.23;;;;;;;23.10;42.49;100242.88;10385353;28;20107;-63
2023/09/05 18:18:06;;;;;;;1.90;1.17;;;;;;;22.77;43.36;100251.78;10399277;28;20478;-63
2023/09/05 18:23:08;;;;;;;2.80;1.20;;;;;;;22.61;44.13;100258.72;10392383;28;20052;-63
2023/09/05 18:28:10;;;;;;;2.20;1.27;;;;;;;22.49;44.75;100259.16;10384593;28;20057;-63
2023/09/05 18:33:12;;;;;;;1.00;0.90;;;;;;;22.40;45.93;100263.63;10389591;28;20060;-62
2023/09/05 18:38:14;;;;;;;8.82;1.50;;;;;;;22.17;46.65;100267.81;10385156;28;20424;-62
2023/09/05 18:43:16;;;;;;;3.10;1.27;;;;;;;22.00;47.38;100281.16;10385009;28;20064;-62
2023/09/05 18:48:20;;;;;;;1.52;1.00;;;;;;;21.80;47.62;100283.19;10400522;28;20132;-61
2023/09/05 18:53:23;;;;;;;1.50;1.15;;;;;;;21.61;47.64;100291.34;10387838;28;20080;-61
2023/09/05 18:58:26;;;;;;;2.42;1.20;;;;;;;21.51;47.96;100294.09;10387134;28;20520;-60
2023/09/05 19:03:30;;;;;;;3.42;1.10;;;;;;;21.39;48.32;100290.00;10386064;28;20095;-60
2023/09/05 19:08:33;;;;;;;2.72;1.40;;;;;;;21.29;48.65;100301.66;10404431;28;20054;-60
2023/09/05 19:13:35;;;;;;;1.08;0.90;;;;;;;21.26;48.59;100300.13;10402036;28;20053;-60
2023/09/05 19:18:39;;;;;;;1.55;1.20;;;;;;;21.16;49.29;100303.81;10386413;28;20076;-60
2023/09/05 19:23:41;;;;;;;2.72;1.20;;;;;;;21.04;50.01;100309.38;10392197;28;20216;-61
2023/09/05 19:28:43;;;;;;;2.88;1.50;;;;;;;20.82;50.93;100316.91;10387777;28;20585;-61
2023/09/05 19:33:48;;;;;;;1.83;1.15;;;;;;;20.65;51.89;100315.88;10387536;28;20057;-62
2023/09/05 19:38:51;;;;;;;3.88;1.30;;;;;;;20.20;52.31;100320.19;10402159;28;20049;-61
2023/09/05 19:43:53;;;;;;;3.38;1.20;;;;;;;20.10;52.85;100322.03;10387106;28;20042;-61
2023/09/05 19:48:57;;;;;;;2.45;1.27;;;;;;;20.06;53.05;100331.25;10385819;28;20041;-61
2023/09/05 19:54:00;;;;;;;1.73;1.20;;;;;;;19.96;53.74;100322.47;10387030;28;20049;-61
2023/09/05 19:59:03;;;;;;;2.25;1.40;;;;;;;19.92;53.88;100337.00;10393019;28;20049;-61
2023/09/05 20:04:06;;;;;;;3.30;1.52;;;;;;;19.62;54.32;100337.97;10387655;28;20061;-61
2023/09/05 20:09:08;;;;;;;2.63;1.20;;;;;;;19.21;55.16;100338.19;10394767;28;20044;-61
2023/09/05 20:14:11;;;;;;;4.07;1.20;;;;;;;19.13;55.43;100349.50;10387410;28;20057;-61
2023/09/05 20:19:13;;;;;;;2.58;1.27;;;;;;;19.22;56.05;100338.03;10394271;28;20508;-61
2023/09/05 20:24:18;;;;;;;2.15;1.25;;;;;;;19.08;56.27;100337.59;10394087;28;20044;-61
2023/09/05 20:29:20;;;;;;;4.20;1.23;;;;;;;18.75;56.45;100349.31;10391834;28;20588;-61
2023/09/05 20:34:22;;;;;;;2.92;1.40;;;;;;;18.68;56.91;100356.13;10394153;28;20409;-60
2023/09/05 20:39:24;;;;;;;13.70;2.05;;;;;;;18.69;57.24;100355.13;10402471;28;20053;-61
2023/09/05 20:44:26;;;;;;;4.82;1.70;;;;;;;18.55;57.58;100353.69;10393107;28;20037;-62
2023/09/05 20:49:28;;;;;;;2.88;1.42;;;;;;;18.53;57.58;100363.59;10408674;28;20224;-61
2023/09/05 20:54:30;;;;;;;2.22;1.20;;;;;;;18.59;58.01;100359.56;10404386;28;20081;-61
2023/09/05 20:59:33;;;;;;;3.92;1.40;;;;;;;18.58;57.79;100357.91;10392649;28;20361;-61
2023/09/05 21:04:35;;;;;;;1.67;1.20;;;;;;;18.21;58.21;100354.06;10426430;28;20641;-61
2023/09/05 21:09:37;;;;;;;2.70;1.30;;;;;;;17.97;58.99;100356.94;10398654;28;20834;-61
2023/09/05 21:14:41;;;;;;;2.83;1.50;;;;;;;18.05;59.23;100365.06;10399837;28;20338;-61
2023/09/05 21:19:43;;;;;;;4.10;1.50;;;;;;;17.82;59.40;100366.97;10397876;28;20045;-61
2023/09/05 21:24:45;;;;;;;2.58;1.20;;;;;;;17.72;59.87;100363.41;10394781;28;20056;-61
2023/09/05 21:29:48;;;;;;;3.22;1.20;;;;;;;17.69;60.22;100366.31;10401426;28;20452;-61
2023/09/05 21:34:52;;;;;;;2.67;1.30;;;;;;;17.80;59.80;100368.91;10395538;28;20404;-61
2023/09/05 21:39:54;;;;;;;2.65;1.27;;;;;;;17.65;59.96;100364.88;10401000;28;20038;-61
2023/09/05 21:44:57;;;;;;;3.05;1.50;;;;;;;17.36;60.50;100374.38;10395081;28;20038;-61
2023/09/05 21:49:59;;;;;;;3.33;1.30;;;;;;;17.47;60.55;100362.88;10398497;28;20207;-61
2023/09/05 21:55:02;;;;;;;2.92;1.25;;;;;;;17.53;60.67;100357.94;10397497;28;20163;-61
2023/09/05 22:00:06;;;;;;;2.75;1.38;;;;;;;17.23;60.58;100363.03;10402441;28;20493;-61
2023/09/05 22:05:08;;;;;;;2.13;1.40;;;;;;;17.03;61.10;100364.66;10397395;28;20041;-61
2023/09/05 22:10:10;;;;;;;4.00;1.60;;;;;;;17.01;61.30;100365.72;10388162;28;20649;-61
2023/09/05 22:15:14;;;;;;;2.70;1.65;;;;;;;16.97;61.52;100369.56;10389522;28;20579;-61
2023/09/05 22:20:16;;;;;;;3.10;1.52;;;;;;;17.00;61.61;100370.16;10389414;28;20195;-61
2023/09/05 22:25:18;;;;;;;3.13;1.40;;;;;;;17.08;61.25;100377.47;10409381;28;20046;-61
2023/09/05 22:30:20;;;;;;;2.95;1.50;;;;;;;17.08;61.50;100380.13;10394185;28;20061;-60
2023/09/05 22:35:22;;;;;;;5.95;1.40;;;;;;;16.92;61.55;100374.38;10393762;28;20045;-61
2023/09/05 22:40:24;;;;;;;2.67;1.25;;;;;;;16.76;61.67;100376.53;10387513;28;20131;-61
2023/09/05 22:45:27;;;;;;;3.97;1.60;;;;;;;16.61;62.08;100393.59;10387768;28;20041;-61
2023/09/05 22:50:29;;;;;;;5.00;1.60;;;;;;;16.63;62.05;100396.97;10388391;28;20048;-60
2023/09/05 22:55:38;;;;;;;2.25;1.30;;;;;;;16.65;62.72;100387.94;10388379;28;20048;-60
2023/09/05 23:00:40;;;;;;;2.53;1.30;;;;;;;16.43;61.94;100384.38;10386865;28;20060;-60
2023/09/05 23:05:42;;;;;;;3.63;1.40;;;;;;;16.44;62.68;100388.75;10386749;28;20481;-60
2023/09/05 23:10:44;;;;;;;2.40;1.55;;;;;;;16.41;62.48;100388.94;10392224;28;20049;-60
2023/09/05 23:15:46;;;;;;;2.42;1.48;;;;;;;16.24;62.49;100390.25;10386209;28;20049;-60